Westville Center, New York
Current Conditions -  °F | °C
As of 2:53 AM on Friday 19 Dec 2014 (Local Time) from KMSS Reporting Station
Overcast Overcast  
Wind Chill: 16°   Ceiling: 1700
Heat Index: 25°   Visibility: 10mi
Dew Point: 19°   Wind: 9mph
Humidity: 78%   Direction: 300°WNW
Pressure: 30.03"   Gusts: NA
Location:  44.9516°N, 74.3293°W
Report Text: KMSS 190753Z AUTO 30008KT 10SM OVC017 M04/M07 A3003 RMK AO2 SLP174 T10391072
Loading
Personal Weather Stations






























Interactive Weather Map New forecast layout! Learn more

10-Day Weather Forecast

Advertisements
Track Severe Weather on mobile